CPX235 Details

Departure: Phoenix Sky Harbor International Airport (KPHX)
Arrival: Miami International Airport (KMIA) at N/A
Route: ECLPS1 PHASE ELP FST J86 LEV Y290 BLVNS Y290 BAGGS SSCOT5
Notes:


Current Weather Information
KPHX 171551Z VRB03KT 10SM SCT250 34/16 A2984 RMK AO2 SLP083 T03390156
KMIA 171553Z 17007KT 10SM SCT035 BKN250 33/23 A3011 RMK AO2 SLP194 T03280228